Flight Track Log - Related Links

Times and Time Zones

All times are in EDT time to prevent confusion due to time zone crossing. See the KAP720 flight status page for this flight to view local times or setup timezone preferences in your user account.

Time Position Orientation Groundspeed Altitude Reporting Facility
EDT Latitude Longitude Course Direction KTS MPH feet Rate Location/Type
Tue 06:32:55 PM 42.7214 -73.8136 314° West 105 121 1,300  Level Boston Center
Tue 06:33:56 PM 42.7439 -73.8453 314° West 130 150 1,900 595 Climbing Boston Center
Tue 06:34:56 PM 42.7728 -73.8683 330° Northwest 129 148 2,500 595 Climbing Boston Center
Tue 06:35:57 PM 42.8058 -73.8975 327° Northwest 137 158 3,100 541 Climbing Boston Center
Tue 06:36:58 PM 42.8367 -73.9236 328° Northwest 138 159 3,600 545 Climbing Boston Center
Tue 06:37:58 PM 42.8719 -73.9472 334° Northwest 140 161 4,200 645 Climbing Boston Center
Tue 06:38:59 PM 42.9089 -73.9794 327° Northwest 143 165 4,900 545 Climbing Boston Center
Tue 06:39:59 PM 42.9461 -74.0086 330° Northwest 150 173 5,300 496 Climbing Boston Center
Tue 06:41:00 PM 42.9831 -74.0408 327° Northwest 154 177 5,900 541 Climbing Boston Center
Tue 06:42:01 PM 43.0161 -74.0672 330° Northwest 152 175 6,400 496 Climbing Boston Center
Tue 06:43:01 PM 43.0511 -74.0967 328° Northwest 152 175 6,900 446 Climbing Boston Center
Tue 06:44:02 PM 43.0903 -74.1289 329° Northwest 156 180 7,300 491 Climbing Boston Center
Tue 06:44:51 PM 43.1211 -74.1525 331° Northwest 160 184 7,800 495 Climbing Boston Center
Tue 06:45:51 PM 43.1583 -74.1819 330° Northwest 154 177 8,200 400 Climbing Boston Center
Tue 06:46:51 PM 43.1953 -74.2144 327° Northwest 160 184 8,600 150 Climbing Boston Center
Tue 06:47:51 PM 43.2386 -74.2469 331° Northwest 171 197 8,500 -50 Descending Boston Center
Tue 06:48:51 PM 43.2794 -74.2853 326° Northwest 176 203 8,500  Level Boston Center
Tue 06:49:51 PM 43.3208 -74.3181 330° Northwest 176 203 8,500  Level Boston Center
Tue 06:50:51 PM 43.3619 -74.3506 330° Northwest 171 197 8,500  Level Boston Center
Tue 06:51:51 PM 43.4031 -74.3861 328° Northwest 171 197 8,500  Level Boston Center
Tue 06:52:51 PM 43.4442 -74.4161 332° Northwest 165 190 8,500  Level Boston Center
Tue 06:53:51 PM 43.4811 -74.4489 327° Northwest 165 190 8,500  Level Boston Center
Tue 06:54:51 PM 43.5200 -74.4817 329° Northwest 165 190 8,500  Level Boston Center
Tue 06:55:51 PM 43.5569 -74.5114 330° Northwest 165 190 8,500  Level Boston Center
Tue 06:56:51 PM 43.5981 -74.5444 330° Northwest 165 190 8,500  Level Boston Center
Tue 06:57:51 PM 43.6372 -74.5744 331° Northwest 165 190 8,500 -50 Level Boston Center
Tue 06:58:51 PM 43.6761 -74.6103 326° Northwest 165 190 8,400 -50 Descending Boston Center
Tue 06:59:51 PM 43.7150 -74.6406 331° Northwest 165 190 8,400 50 Level Boston Center
Tue 07:00:51 PM 43.7561 -74.6764 328° Northwest 165 190 8,500  Climbing Boston Center
Tue 07:01:51 PM 43.7972 -74.7097 330° Northwest 165 190 8,400 -50 Descending Boston Center
Tue 07:02:51 PM 43.8381 -74.7458 327° Northwest 165 190 8,400  Level Boston Center
Tue 07:03:51 PM 43.8811 -74.7819 329° Northwest 165 190 8,400 -150 Level Boston Center
Tue 07:04:51 PM 43.9219 -74.8181 328° Northwest 165 190 8,100 -350 Descending Boston Center
Tue 07:05:51 PM 43.9692 -74.8547 331° Northwest 172 198 7,700 -400 Descending Boston Center
Tue 07:06:51 PM 44.0142 -74.8939 328° Northwest 185 213 7,300 -350 Descending Boston Center
Tue 07:07:51 PM 44.0594 -74.9306 330° Northwest 185 213 7,000 -250 Descending Boston Center
Tue 07:08:51 PM 44.1022 -74.9669 329° Northwest 185 213 6,800 -250 Descending Boston Center
Tue 07:09:51 PM 44.1453 -75.0036 329° Northwest 185 213 6,500 -350 Descending Boston Center
Tue 07:10:51 PM 44.1881 -75.0400 329° Northwest 185 213 6,100 -300 Descending Boston Center
Tue 07:11:51 PM 44.2311 -75.0767 329° Northwest 185 213 5,900 -350 Descending Boston Center
Tue 07:12:51 PM 44.2742 -75.1136 328° Northwest 185 213 5,400 -450 Descending Boston Center
Tue 07:13:51 PM 44.3192 -75.1475 332° Northwest 185 213 5,000 -450 Descending Boston Center
Tue 07:14:51 PM 44.3642 -75.1786 334° Northwest 179 206 4,500 -500 Descending Boston Center
Tue 07:15:51 PM 44.4072 -75.2097 333° Northwest 179 206 4,000 -400 Descending Boston Center
Tue 07:16:51 PM 44.4481 -75.2406 332° Northwest 179 206 3,700 -400 Descending Boston Center
Tue 07:17:51 PM 44.4911 -75.2689 335° Northwest 174 200 3,200 -500 Descending Boston Center

Login

Don't have an account? Register now (free) for customized features, flight alerts, and more!